sensor_id;sensor_type;location;lat;lon;timestamp;P1;durP1;ratioP1;P2;durP2;ratioP2
73938;SDS011;62291;47.554;8.504;2022-11-20T00:01:10;16.15;;;7.40;;
73938;SDS011;62291;47.554;8.504;2022-11-20T00:03:41;13.13;;;8.27;;
73938;SDS011;62291;47.554;8.504;2022-11-20T00:06:07;13.23;;;7.60;;
73938;SDS011;62291;47.554;8.504;2022-11-20T00:08:35;11.40;;;7.68;;
73938;SDS011;62291;47.554;8.504;2022-11-20T00:11:08;13.55;;;7.10;;
73938;SDS011;62291;47.554;8.504;2022-11-20T00:13:36;10.25;;;7.25;;
73938;SDS011;62291;47.554;8.504;2022-11-20T00:16:02;12.68;;;7.10;;
73938;SDS011;62291;47.554;8.504;2022-11-20T00:18:30;9.73;;;7.10;;
73938;SDS011;62291;47.554;8.504;2022-11-20T00:21:00;11.63;;;8.10;;
73938;SDS011;62291;47.554;8.504;2022-11-20T00:23:30;11.88;;;7.85;;
73938;SDS011;62291;47.554;8.504;2022-11-20T00:25:56;11.90;;;7.82;;
73938;SDS011;62291;47.554;8.504;2022-11-20T00:28:25;13.20;;;8.85;;
73938;SDS011;62291;47.554;8.504;2022-11-20T00:30:51;13.65;;;7.88;;
73938;SDS011;62291;47.554;8.504;2022-11-20T00:33:17;11.52;;;7.38;;
73938;SDS011;62291;47.554;8.504;2022-11-20T00:35:42;11.68;;;7.35;;
73938;SDS011;62291;47.554;8.504;2022-11-20T00:38:08;11.23;;;6.78;;
73938;SDS011;62291;47.554;8.504;2022-11-20T00:40:34;11.27;;;7.28;;
73938;SDS011;62291;47.554;8.504;2022-11-20T00:42:59;9.43;;;6.78;;
73938;SDS011;62291;47.554;8.504;2022-11-20T00:45:25;9.88;;;6.60;;
73938;SDS011;62291;47.554;8.504;2022-11-20T00:47:51;11.57;;;6.30;;
73938;SDS011;62291;47.554;8.504;2022-11-20T00:50:16;7.82;;;5.70;;
73938;SDS011;62291;47.554;8.504;2022-11-20T00:52:42;10.75;;;5.38;;
73938;SDS011;62291;47.554;8.504;2022-11-20T00:55:07;8.32;;;6.18;;
73938;SDS011;62291;47.554;8.504;2022-11-20T00:57:33;8.20;;;5.75;;
73938;SDS011;62291;47.554;8.504;2022-11-20T00:59:59;7.47;;;5.65;;
73938;SDS011;62291;47.554;8.504;2022-11-20T01:02:25;8.65;;;5.45;;
73938;SDS011;62291;47.554;8.504;2022-11-20T01:04:50;9.45;;;5.70;;
73938;SDS011;62291;47.554;8.504;2022-11-20T01:07:16;6.70;;;5.22;;
73938;SDS011;62291;47.554;8.504;2022-11-20T01:09:41;12.35;;;6.43;;
73938;SDS011;62291;47.554;8.504;2022-11-20T01:12:07;7.70;;;6.28;;
73938;SDS011;62291;47.554;8.504;2022-11-20T01:14:33;7.25;;;5.43;;
73938;SDS011;62291;47.554;8.504;2022-11-20T01:16:58;7.97;;;4.80;;
73938;SDS011;62291;47.554;8.504;2022-11-20T01:19:24;8.25;;;4.90;;
73938;SDS011;62291;47.554;8.504;2022-11-20T01:21:50;7.60;;;5.07;;
73938;SDS011;62291;47.554;8.504;2022-11-20T01:24:18;9.18;;;5.05;;
73938;SDS011;62291;47.554;8.504;2022-11-20T01:26:46;8.25;;;6.13;;
73938;SDS011;62291;47.554;8.504;2022-11-20T01:29:18;8.73;;;5.90;;
73938;SDS011;62291;47.554;8.504;2022-11-20T01:31:46;8.60;;;5.65;;
73938;SDS011;62291;47.554;8.504;2022-11-20T01:34:13;7.57;;;5.70;;
73938;SDS011;62291;47.554;8.504;2022-11-20T01:36:41;9.18;;;5.57;;
73938;SDS011;62291;47.554;8.504;2022-11-20T01:39:10;6.90;;;5.60;;
73938;SDS011;62291;47.554;8.504;2022-11-20T01:41:41;7.22;;;5.13;;
73938;SDS011;62291;47.554;8.504;2022-11-20T01:47:07;8.25;;;4.88;;
73938;SDS011;62291;47.554;8.504;2022-11-20T01:49:36;6.68;;;4.70;;
73938;SDS011;62291;47.554;8.504;2022-11-20T01:52:07;8.73;;;4.72;;
73938;SDS011;62291;47.554;8.504;2022-11-20T01:54:42;5.97;;;4.53;;
73938;SDS011;62291;47.554;8.504;2022-11-20T01:57:13;5.53;;;4.20;;
73938;SDS011;62291;47.554;8.504;2022-11-20T01:59:41;8.60;;;4.35;;
73938;SDS011;62291;47.554;8.504;2022-11-20T02:02:13;6.68;;;4.25;;
73938;SDS011;62291;47.554;8.504;2022-11-20T02:04:39;6.85;;;4.35;;
73938;SDS011;62291;47.554;8.504;2022-11-20T02:07:05;7.85;;;4.50;;
73938;SDS011;62291;47.554;8.504;2022-11-20T02:09:30;6.13;;;4.00;;
73938;SDS011;62291;47.554;8.504;2022-11-20T02:11:56;6.20;;;4.22;;
73938;SDS011;62291;47.554;8.504;2022-11-20T02:14:23;7.75;;;4.35;;
73938;SDS011;62291;47.554;8.504;2022-11-20T02:16:50;6.90;;;3.65;;
73938;SDS011;62291;47.554;8.504;2022-11-20T02:19:29;7.25;;;4.03;;
73938;SDS011;62291;47.554;8.504;2022-11-20T02:24:29;5.40;;;3.47;;
73938;SDS011;62291;47.554;8.504;2022-11-20T02:26:57;7.10;;;3.30;;
73938;SDS011;62291;47.554;8.504;2022-11-20T02:29:28;3.90;;;2.75;;
73938;SDS011;62291;47.554;8.504;2022-11-20T02:32:16;5.28;;;3.30;;
73938;SDS011;62291;47.554;8.504;2022-11-20T02:34:50;8.63;;;3.35;;
73938;SDS011;62291;47.554;8.504;2022-11-20T02:37:16;4.15;;;2.75;;
73938;SDS011;62291;47.554;8.504;2022-11-20T02:39:43;5.70;;;2.53;;
73938;SDS011;62291;47.554;8.504;2022-11-20T02:42:10;5.30;;;2.67;;
73938;SDS011;62291;47.554;8.504;2022-11-20T02:44:36;4.38;;;3.08;;
73938;SDS011;62291;47.554;8.504;2022-11-20T02:47:02;4.00;;;2.58;;
73938;SDS011;62291;47.554;8.504;2022-11-20T02:49:28;4.10;;;3.08;;
73938;SDS011;62291;47.554;8.504;2022-11-20T02:51:53;4.35;;;2.67;;
73938;SDS011;62291;47.554;8.504;2022-11-20T02:54:19;4.97;;;2.50;;
73938;SDS011;62291;47.554;8.504;2022-11-20T02:56:45;6.18;;;2.90;;
73938;SDS011;62291;47.554;8.504;2022-11-20T02:59:10;5.60;;;2.58;;
73938;SDS011;62291;47.554;8.504;2022-11-20T03:01:36;4.28;;;2.65;;
73938;SDS011;62291;47.554;8.504;2022-11-20T03:04:02;3.33;;;2.53;;
73938;SDS011;62291;47.554;8.504;2022-11-20T03:06:28;4.22;;;2.80;;
73938;SDS011;62291;47.554;8.504;2022-11-20T03:08:53;4.70;;;2.60;;
73938;SDS011;62291;47.554;8.504;2022-11-20T03:11:19;4.03;;;2.50;;
73938;SDS011;62291;47.554;8.504;2022-11-20T03:13:45;5.32;;;2.17;;
73938;SDS011;62291;47.554;8.504;2022-11-20T03:16:12;5.35;;;2.40;;
73938;SDS011;62291;47.554;8.504;2022-11-20T03:18:40;5.53;;;2.25;;
73938;SDS011;62291;47.554;8.504;2022-11-20T03:21:07;4.60;;;2.53;;
73938;SDS011;62291;47.554;8.504;2022-11-20T03:23:34;3.90;;;2.40;;
73938;SDS011;62291;47.554;8.504;2022-11-20T03:26:07;3.97;;;2.78;;
73938;SDS011;62291;47.554;8.504;2022-11-20T03:28:34;4.20;;;2.55;;
73938;SDS011;62291;47.554;8.504;2022-11-20T03:31:10;4.05;;;1.90;;
73938;SDS011;62291;47.554;8.504;2022-11-20T03:33:39;4.55;;;2.20;;
73938;SDS011;62291;47.554;8.504;2022-11-20T03:36:06;4.18;;;2.38;;
73938;SDS011;62291;47.554;8.504;2022-11-20T03:38:34;4.68;;;2.20;;
73938;SDS011;62291;47.554;8.504;2022-11-20T03:41:01;3.40;;;2.85;;
73938;SDS011;62291;47.554;8.504;2022-11-20T03:43:38;5.90;;;2.72;;
73938;SDS011;62291;47.554;8.504;2022-11-20T03:46:04;4.75;;;1.92;;
73938;SDS011;62291;47.554;8.504;2022-11-20T03:48:30;6.72;;;2.15;;
73938;SDS011;62291;47.554;8.504;2022-11-20T03:51:10;3.38;;;2.60;;
73938;SDS011;62291;47.554;8.504;2022-11-20T03:53:40;4.82;;;2.30;;
73938;SDS011;62291;47.554;8.504;2022-11-20T03:56:07;4.88;;;2.35;;
73938;SDS011;62291;47.554;8.504;2022-11-20T03:58:34;5.53;;;2.55;;
73938;SDS011;62291;47.554;8.504;2022-11-20T04:01:06;3.10;;;1.95;;
73938;SDS011;62291;47.554;8.504;2022-11-20T04:03:41;4.88;;;2.20;;
73938;SDS011;62291;47.554;8.504;2022-11-20T04:08:35;5.15;;;2.28;;
73938;SDS011;62291;47.554;8.504;2022-11-20T04:11:08;3.33;;;2.20;;
73938;SDS011;62291;47.554;8.504;2022-11-20T04:13:41;3.08;;;2.10;;
73938;SDS011;62291;47.554;8.504;2022-11-20T04:16:10;3.67;;;2.03;;
73938;SDS011;62291;47.554;8.504;2022-11-20T04:18:36;4.65;;;2.28;;
73938;SDS011;62291;47.554;8.504;2022-11-20T04:21:03;4.10;;;2.30;;
73938;SDS011;62291;47.554;8.504;2022-11-20T04:23:29;4.65;;;2.63;;
73938;SDS011;62291;47.554;8.504;2022-11-20T04:26:00;4.95;;;2.70;;
73938;SDS011;62291;47.554;8.504;2022-11-20T04:28:28;4.93;;;2.70;;
73938;SDS011;62291;47.554;8.504;2022-11-20T04:30:53;3.70;;;2.60;;
73938;SDS011;62291;47.554;8.504;2022-11-20T04:33:19;4.93;;;2.63;;
73938;SDS011;62291;47.554;8.504;2022-11-20T04:35:45;5.30;;;2.65;;
73938;SDS011;62291;47.554;8.504;2022-11-20T04:38:12;5.85;;;2.90;;
73938;SDS011;62291;47.554;8.504;2022-11-20T04:40:38;3.45;;;2.70;;
73938;SDS011;62291;47.554;8.504;2022-11-20T04:43:04;5.32;;;2.60;;
73938;SDS011;62291;47.554;8.504;2022-11-20T04:45:29;5.85;;;2.83;;
73938;SDS011;62291;47.554;8.504;2022-11-20T04:47:55;5.30;;;2.67;;
73938;SDS011;62291;47.554;8.504;2022-11-20T04:50:21;3.42;;;2.30;;
73938;SDS011;62291;47.554;8.504;2022-11-20T04:52:46;3.40;;;2.20;;
73938;SDS011;62291;47.554;8.504;2022-11-20T04:55:12;4.85;;;2.05;;
73938;SDS011;62291;47.554;8.504;2022-11-20T04:57:38;3.15;;;1.95;;
73938;SDS011;62291;47.554;8.504;2022-11-20T05:00:04;3.75;;;1.88;;
73938;SDS011;62291;47.554;8.504;2022-11-20T05:02:30;3.17;;;2.25;;
73938;SDS011;62291;47.554;8.504;2022-11-20T05:04:56;4.32;;;2.00;;
73938;SDS011;62291;47.554;8.504;2022-11-20T05:07:22;3.25;;;1.80;;
73938;SDS011;62291;47.554;8.504;2022-11-20T05:09:48;4.72;;;2.30;;
73938;SDS011;62291;47.554;8.504;2022-11-20T05:12:13;4.68;;;2.25;;
73938;SDS011;62291;47.554;8.504;2022-11-20T05:14:39;4.53;;;2.63;;
73938;SDS011;62291;47.554;8.504;2022-11-20T05:17:05;8.15;;;2.22;;
73938;SDS011;62291;47.554;8.504;2022-11-20T05:19:30;4.07;;;2.33;;
73938;SDS011;62291;47.554;8.504;2022-11-20T05:21:56;5.18;;;2.53;;
73938;SDS011;62291;47.554;8.504;2022-11-20T05:24:22;5.85;;;2.80;;
73938;SDS011;62291;47.554;8.504;2022-11-20T05:26:47;2.85;;;2.10;;
73938;SDS011;62291;47.554;8.504;2022-11-20T05:29:13;5.13;;;2.20;;
73938;SDS011;62291;47.554;8.504;2022-11-20T05:31:39;4.72;;;2.53;;
73938;SDS011;62291;47.554;8.504;2022-11-20T05:34:05;5.63;;;2.42;;
73938;SDS011;62291;47.554;8.504;2022-11-20T05:36:32;5.50;;;2.30;;
73938;SDS011;62291;47.554;8.504;2022-11-20T05:38:58;4.75;;;2.50;;
73938;SDS011;62291;47.554;8.504;2022-11-20T05:41:24;4.57;;;2.60;;
73938;SDS011;62291;47.554;8.504;2022-11-20T05:43:50;4.38;;;2.10;;
73938;SDS011;62291;47.554;8.504;2022-11-20T05:46:17;2.90;;;2.30;;
73938;SDS011;62291;47.554;8.504;2022-11-20T05:48:44;4.03;;;2.13;;
73938;SDS011;62291;47.554;8.504;2022-11-20T05:51:12;5.28;;;2.40;;
73938;SDS011;62291;47.554;8.504;2022-11-20T05:53:40;3.63;;;2.30;;
73938;SDS011;62291;47.554;8.504;2022-11-20T05:56:07;3.53;;;1.98;;
73938;SDS011;62291;47.554;8.504;2022-11-20T05:58:41;2.38;;;1.67;;
73938;SDS011;62291;47.554;8.504;2022-11-20T06:01:11;4.85;;;1.90;;
73938;SDS011;62291;47.554;8.504;2022-11-20T06:03:42;3.70;;;2.00;;
73938;SDS011;62291;47.554;8.504;2022-11-20T06:06:11;4.65;;;1.70;;
73938;SDS011;62291;47.554;8.504;2022-11-20T06:08:37;5.68;;;1.75;;
73938;SDS011;62291;47.554;8.504;2022-11-20T06:11:03;3.75;;;1.83;;
73938;SDS011;62291;47.554;8.504;2022-11-20T06:13:33;4.47;;;1.98;;
73938;SDS011;62291;47.554;8.504;2022-11-20T06:15:59;3.45;;;1.90;;
73938;SDS011;62291;47.554;8.504;2022-11-20T06:18:26;3.55;;;1.75;;
73938;SDS011;62291;47.554;8.504;2022-11-20T06:21:00;2.15;;;1.70;;
73938;SDS011;62291;47.554;8.504;2022-11-20T06:23:28;3.90;;;1.40;;
73938;SDS011;62291;47.554;8.504;2022-11-20T06:25:55;3.80;;;2.00;;
73938;SDS011;62291;47.554;8.504;2022-11-20T06:28:20;4.57;;;1.70;;
73938;SDS011;62291;47.554;8.504;2022-11-20T06:30:47;2.97;;;1.30;;
73938;SDS011;62291;47.554;8.504;2022-11-20T06:33:12;3.60;;;1.38;;
73938;SDS011;62291;47.554;8.504;2022-11-20T06:35:38;1.80;;;1.20;;
73938;SDS011;62291;47.554;8.504;2022-11-20T06:38:04;4.22;;;1.35;;
73938;SDS011;62291;47.554;8.504;2022-11-20T06:40:29;2.97;;;1.45;;
73938;SDS011;62291;47.554;8.504;2022-11-20T06:42:55;2.28;;;1.20;;
73938;SDS011;62291;47.554;8.504;2022-11-20T06:45:21;2.95;;;1.58;;
73938;SDS011;62291;47.554;8.504;2022-11-20T06:47:46;3.13;;;1.52;;
73938;SDS011;62291;47.554;8.504;2022-11-20T06:50:12;2.20;;;1.23;;
73938;SDS011;62291;47.554;8.504;2022-11-20T06:52:38;2.25;;;0.98;;
73938;SDS011;62291;47.554;8.504;2022-11-20T06:55:04;3.08;;;1.50;;
73938;SDS011;62291;47.554;8.504;2022-11-20T06:57:30;1.88;;;1.17;;
73938;SDS011;62291;47.554;8.504;2022-11-20T06:59:55;4.57;;;1.63;;
73938;SDS011;62291;47.554;8.504;2022-11-20T07:02:21;4.03;;;1.92;;
73938;SDS011;62291;47.554;8.504;2022-11-20T07:04:47;5.82;;;2.53;;
73938;SDS011;62291;47.554;8.504;2022-11-20T07:07:12;3.60;;;2.20;;
73938;SDS011;62291;47.554;8.504;2022-11-20T07:09:38;5.63;;;2.22;;
73938;SDS011;62291;47.554;8.504;2022-11-20T07:12:04;4.13;;;2.38;;
73938;SDS011;62291;47.554;8.504;2022-11-20T07:14:30;4.55;;;2.30;;
73938;SDS011;62291;47.554;8.504;2022-11-20T07:16:55;4.53;;;2.15;;
73938;SDS011;62291;47.554;8.504;2022-11-20T07:19:21;5.00;;;2.30;;
73938;SDS011;62291;47.554;8.504;2022-11-20T07:21:47;3.72;;;2.53;;
73938;SDS011;62291;47.554;8.504;2022-11-20T07:24:12;4.60;;;2.50;;
73938;SDS011;62291;47.554;8.504;2022-11-20T07:26:38;7.47;;;2.70;;
73938;SDS011;62291;47.554;8.504;2022-11-20T07:29:04;3.90;;;2.20;;
73938;SDS011;62291;47.554;8.504;2022-11-20T07:31:29;5.18;;;2.10;;
73938;SDS011;62291;47.554;8.504;2022-11-20T07:33:55;6.45;;;2.00;;
73938;SDS011;62291;47.554;8.504;2022-11-20T07:36:21;2.85;;;1.67;;
73938;SDS011;62291;47.554;8.504;2022-11-20T07:38:46;3.22;;;2.00;;
73938;SDS011;62291;47.554;8.504;2022-11-20T07:41:12;4.20;;;2.00;;
73938;SDS011;62291;47.554;8.504;2022-11-20T07:43:38;7.28;;;2.15;;
73938;SDS011;62291;47.554;8.504;2022-11-20T07:46:03;3.28;;;1.90;;
73938;SDS011;62291;47.554;8.504;2022-11-20T07:48:29;3.85;;;2.20;;
73938;SDS011;62291;47.554;8.504;2022-11-20T07:50:55;4.70;;;2.70;;
73938;SDS011;62291;47.554;8.504;2022-11-20T07:53:21;5.47;;;2.60;;
73938;SDS011;62291;47.554;8.504;2022-11-20T07:55:48;4.95;;;2.40;;
73938;SDS011;62291;47.554;8.504;2022-11-20T07:58:13;5.53;;;2.67;;
73938;SDS011;62291;47.554;8.504;2022-11-20T08:00:39;3.60;;;2.38;;
73938;SDS011;62291;47.554;8.504;2022-11-20T08:03:06;5.03;;;2.28;;
73938;SDS011;62291;47.554;8.504;2022-11-20T08:05:32;3.90;;;2.45;;
73938;SDS011;62291;47.554;8.504;2022-11-20T08:07:58;4.35;;;2.50;;
73938;SDS011;62291;47.554;8.504;2022-11-20T08:10:23;5.35;;;2.42;;
73938;SDS011;62291;47.554;8.504;2022-11-20T08:12:51;5.97;;;2.50;;
73938;SDS011;62291;47.554;8.504;2022-11-20T08:15:36;3.38;;;1.95;;
73938;SDS011;62291;47.554;8.504;2022-11-20T08:18:07;3.85;;;1.80;;
73938;SDS011;62291;47.554;8.504;2022-11-20T08:20:34;3.38;;;1.95;;
73938;SDS011;62291;47.554;8.504;2022-11-20T08:23:00;3.85;;;1.83;;
73938;SDS011;62291;47.554;8.504;2022-11-20T08:25:28;3.53;;;1.88;;
73938;SDS011;62291;47.554;8.504;2022-11-20T08:28:01;2.50;;;1.52;;
73938;SDS011;62291;47.554;8.504;2022-11-20T08:30:29;2.97;;;1.52;;
73938;SDS011;62291;47.554;8.504;2022-11-20T08:32:59;2.65;;;1.35;;
73938;SDS011;62291;47.554;8.504;2022-11-20T08:37:52;3.28;;;1.30;;
73938;SDS011;62291;47.554;8.504;2022-11-20T08:40:18;1.63;;;1.05;;
73938;SDS011;62291;47.554;8.504;2022-11-20T08:42:47;2.17;;;1.10;;
73938;SDS011;62291;47.554;8.504;2022-11-20T08:45:14;2.15;;;0.93;;
73938;SDS011;62291;47.554;8.504;2022-11-20T08:47:41;2.45;;;1.15;;
73938;SDS011;62291;47.554;8.504;2022-11-20T08:50:07;2.30;;;0.90;;
73938;SDS011;62291;47.554;8.504;2022-11-20T08:52:36;1.52;;;0.90;;
73938;SDS011;62291;47.554;8.504;2022-11-20T08:55:03;2.03;;;1.27;;
73938;SDS011;62291;47.554;8.504;2022-11-20T08:57:32;2.88;;;1.00;;
73938;SDS011;62291;47.554;8.504;2022-11-20T08:59:59;2.63;;;1.30;;
73938;SDS011;62291;47.554;8.504;2022-11-20T09:02:25;3.22;;;1.38;;
73938;SDS011;62291;47.554;8.504;2022-11-20T09:04:51;5.70;;;1.40;;
73938;SDS011;62291;47.554;8.504;2022-11-20T09:07:16;4.28;;;1.45;;
73938;SDS011;62291;47.554;8.504;2022-11-20T09:09:42;3.00;;;1.15;;
73938;SDS011;62291;47.554;8.504;2022-11-20T09:12:08;1.58;;;1.17;;
73938;SDS011;62291;47.554;8.504;2022-11-20T09:14:33;2.03;;;1.30;;
73938;SDS011;62291;47.554;8.504;2022-11-20T09:16:59;1.90;;;1.20;;
73938;SDS011;62291;47.554;8.504;2022-11-20T09:19:25;3.38;;;1.58;;
73938;SDS011;62291;47.554;8.504;2022-11-20T09:21:51;2.30;;;1.35;;
73938;SDS011;62291;47.554;8.504;2022-11-20T09:24:17;2.42;;;1.52;;
73938;SDS011;62291;47.554;8.504;2022-11-20T09:26:43;2.58;;;1.27;;
73938;SDS011;62291;47.554;8.504;2022-11-20T09:29:09;2.35;;;1.10;;
73938;SDS011;62291;47.554;8.504;2022-11-20T09:31:35;2.65;;;1.30;;
73938;SDS011;62291;47.554;8.504;2022-11-20T09:34:01;2.75;;;1.25;;
73938;SDS011;62291;47.554;8.504;2022-11-20T09:36:27;3.90;;;1.90;;
73938;SDS011;62291;47.554;8.504;2022-11-20T09:38:52;2.00;;;1.13;;
73938;SDS011;62291;47.554;8.504;2022-11-20T09:41:34;1.80;;;1.23;;
73938;SDS011;62291;47.554;8.504;2022-11-20T09:47:15;2.05;;;1.20;;
73938;SDS011;62291;47.554;8.504;2022-11-20T09:55:20;1.80;;;1.00;;
73938;SDS011;62291;47.554;8.504;2022-11-20T09:57:46;3.72;;;1.23;;
73938;SDS011;62291;47.554;8.504;2022-11-20T10:00:15;2.38;;;1.40;;
73938;SDS011;62291;47.554;8.504;2022-11-20T10:22:10;1.75;;;1.02;;
73938;SDS011;62291;47.554;8.504;2022-11-20T10:25:14;2.70;;;1.13;;
73938;SDS011;62291;47.554;8.504;2022-11-20T10:32:40;2.13;;;1.10;;
73938;SDS011;62291;47.554;8.504;2022-11-20T10:35:20;2.25;;;1.00;;
73938;SDS011;62291;47.554;8.504;2022-11-20T10:37:56;4.03;;;1.42;;
73938;SDS011;62291;47.554;8.504;2022-11-20T10:42:59;2.70;;;1.17;;
73938;SDS011;62291;47.554;8.504;2022-11-20T10:45:36;3.10;;;1.35;;
73938;SDS011;62291;47.554;8.504;2022-11-20T10:48:20;3.25;;;1.27;;
73938;SDS011;62291;47.554;8.504;2022-11-20T10:50:59;1.88;;;1.20;;
73938;SDS011;62291;47.554;8.504;2022-11-20T10:56:19;2.38;;;1.20;;
73938;SDS011;62291;47.554;8.504;2022-11-20T10:59:11;2.78;;;1.27;;
73938;SDS011;62291;47.554;8.504;2022-11-20T11:02:19;7.25;;;3.72;;
73938;SDS011;62291;47.554;8.504;2022-11-20T11:04:47;4.20;;;1.50;;
73938;SDS011;62291;47.554;8.504;2022-11-20T11:07:19;3.60;;;1.87;;
73938;SDS011;62291;47.554;8.504;2022-11-20T11:09:54;3.28;;;1.73;;
73938;SDS011;62291;47.554;8.504;2022-11-20T11:12:21;1.92;;;1.30;;
73938;SDS011;62291;47.554;8.504;2022-11-20T11:14:50;2.20;;;1.38;;
73938;SDS011;62291;47.554;8.504;2022-11-20T11:17:33;2.38;;;1.30;;
73938;SDS011;62291;47.554;8.504;2022-11-20T11:20:00;3.63;;;1.50;;
73938;SDS011;62291;47.554;8.504;2022-11-20T11:22:32;2.45;;;1.30;;
73938;SDS011;62291;47.554;8.504;2022-11-20T11:24:59;31.27;;;16.23;;
73938;SDS011;62291;47.554;8.504;2022-11-20T11:27:25;4.68;;;2.00;;
73938;SDS011;62291;47.554;8.504;2022-11-20T11:30:00;3.97;;;1.10;;
73938;SDS011;62291;47.554;8.504;2022-11-20T11:32:38;2.78;;;1.42;;
73938;SDS011;62291;47.554;8.504;2022-11-20T11:35:04;4.00;;;1.20;;
73938;SDS011;62291;47.554;8.504;2022-11-20T11:37:35;4.50;;;1.70;;
73938;SDS011;62291;47.554;8.504;2022-11-20T11:40:03;14.27;;;6.28;;
73938;SDS011;62291;47.554;8.504;2022-11-20T11:42:30;6.97;;;3.20;;
73938;SDS011;62291;47.554;8.504;2022-11-20T11:44:56;1.77;;;1.15;;
73938;SDS011;62291;47.554;8.504;2022-11-20T11:47:36;17.73;;;9.95;;
73938;SDS011;62291;47.554;8.504;2022-11-20T11:50:14;13.38;;;8.52;;
73938;SDS011;62291;47.554;8.504;2022-11-20T11:55:58;3.40;;;1.20;;
73938;SDS011;62291;47.554;8.504;2022-11-20T11:58:48;2.30;;;1.33;;
73938;SDS011;62291;47.554;8.504;2022-11-20T12:04:05;3.08;;;1.38;;
73938;SDS011;62291;47.554;8.504;2022-11-20T12:06:47;4.20;;;1.20;;
73938;SDS011;62291;47.554;8.504;2022-11-20T12:09:18;3.80;;;1.10;;
73938;SDS011;62291;47.554;8.504;2022-11-20T12:11:49;4.72;;;1.00;;
73938;SDS011;62291;47.554;8.504;2022-11-20T12:16:54;5.75;;;1.50;;
73938;SDS011;62291;47.554;8.504;2022-11-20T12:19:29;1.73;;;0.90;;
73938;SDS011;62291;47.554;8.504;2022-11-20T12:22:02;3.42;;;1.08;;
73938;SDS011;62291;47.554;8.504;2022-11-20T12:30:11;2.22;;;0.98;;
73938;SDS011;62291;47.554;8.504;2022-11-20T12:38:43;3.75;;;1.00;;
73938;SDS011;62291;47.554;8.504;2022-11-20T12:52:49;2.95;;;1.00;;
73938;SDS011;62291;47.554;8.504;2022-11-20T12:57:55;3.78;;;1.10;;
73938;SDS011;62291;47.554;8.504;2022-11-20T13:00:26;3.20;;;1.20;;
73938;SDS011;62291;47.554;8.504;2022-11-20T13:08:31;3.40;;;0.90;;
73938;SDS011;62291;47.554;8.504;2022-11-20T13:11:01;3.40;;;1.02;;
73938;SDS011;62291;47.554;8.504;2022-11-20T13:14:29;3.75;;;1.17;;
73938;SDS011;62291;47.554;8.504;2022-11-20T13:19:03;5.65;;;1.45;;
73938;SDS011;62291;47.554;8.504;2022-11-20T13:21:37;2.70;;;1.00;;
73938;SDS011;62291;47.554;8.504;2022-11-20T13:29:33;4.18;;;1.10;;
73938;SDS011;62291;47.554;8.504;2022-11-20T13:32:07;2.28;;;1.25;;
73938;SDS011;62291;47.554;8.504;2022-11-20T13:34:38;6.68;;;1.40;;
73938;SDS011;62291;47.554;8.504;2022-11-20T13:37:05;3.97;;;0.95;;
73938;SDS011;62291;47.554;8.504;2022-11-20T13:39:31;3.28;;;1.00;;
73938;SDS011;62291;47.554;8.504;2022-11-20T13:42:03;4.13;;;0.82;;
73938;SDS011;62291;47.554;8.504;2022-11-20T13:44:53;1.70;;;0.70;;
73938;SDS011;62291;47.554;8.504;2022-11-20T13:47:28;2.35;;;0.80;;
73938;SDS011;62291;47.554;8.504;2022-11-20T13:49:55;3.70;;;1.00;;
73938;SDS011;62291;47.554;8.504;2022-11-20T14:00:57;1.60;;;1.05;;
73938;SDS011;62291;47.554;8.504;2022-11-20T14:03:34;2.50;;;0.80;;
73938;SDS011;62291;47.554;8.504;2022-11-20T14:06:01;1.98;;;0.70;;
73938;SDS011;62291;47.554;8.504;2022-11-20T14:08:48;1.77;;;0.82;;
73938;SDS011;62291;47.554;8.504;2022-11-20T14:11:22;2.17;;;0.75;;
73938;SDS011;62291;47.554;8.504;2022-11-20T14:13:54;1.65;;;0.60;;
73938;SDS011;62291;47.554;8.504;2022-11-20T14:16:22;1.73;;;0.70;;
73938;SDS011;62291;47.554;8.504;2022-11-20T14:18:52;2.35;;;0.80;;
73938;SDS011;62291;47.554;8.504;2022-11-20T14:21:22;3.05;;;0.80;;
73938;SDS011;62291;47.554;8.504;2022-11-20T14:23:51;3.17;;;0.70;;
73938;SDS011;62291;47.554;8.504;2022-11-20T14:26:18;3.35;;;0.80;;
73938;SDS011;62291;47.554;8.504;2022-11-20T14:28:49;1.90;;;0.80;;
73938;SDS011;62291;47.554;8.504;2022-11-20T14:31:25;3.70;;;0.98;;
73938;SDS011;62291;47.554;8.504;2022-11-20T14:33:53;2.83;;;0.85;;
73938;SDS011;62291;47.554;8.504;2022-11-20T14:36:20;3.47;;;0.80;;
73938;SDS011;62291;47.554;8.504;2022-11-20T14:38:48;4.07;;;0.90;;
73938;SDS011;62291;47.554;8.504;2022-11-20T14:41:17;2.10;;;0.90;;
73938;SDS011;62291;47.554;8.504;2022-11-20T14:43:55;3.78;;;1.20;;
73938;SDS011;62291;47.554;8.504;2022-11-20T14:46:22;3.22;;;1.00;;
73938;SDS011;62291;47.554;8.504;2022-11-20T14:48:52;3.22;;;1.00;;
73938;SDS011;62291;47.554;8.504;2022-11-20T14:51:39;3.88;;;1.20;;
73938;SDS011;62291;47.554;8.504;2022-11-20T14:54:17;3.55;;;1.00;;
73938;SDS011;62291;47.554;8.504;2022-11-20T14:56:56;5.85;;;1.15;;
73938;SDS011;62291;47.554;8.504;2022-11-20T14:59:24;3.40;;;1.00;;
73938;SDS011;62291;47.554;8.504;2022-11-20T15:02:04;3.33;;;1.00;;
73938;SDS011;62291;47.554;8.504;2022-11-20T15:04:34;3.00;;;0.90;;
73938;SDS011;62291;47.554;8.504;2022-11-20T15:07:10;3.95;;;1.23;;
73938;SDS011;62291;47.554;8.504;2022-11-20T15:09:36;2.40;;;0.90;;
73938;SDS011;62291;47.554;8.504;2022-11-20T15:12:02;3.20;;;0.85;;
73938;SDS011;62291;47.554;8.504;2022-11-20T15:14:29;4.55;;;0.90;;
73938;SDS011;62291;47.554;8.504;2022-11-20T15:16:57;3.40;;;1.10;;
73938;SDS011;62291;47.554;8.504;2022-11-20T15:19:25;2.03;;;0.98;;
73938;SDS011;62291;47.554;8.504;2022-11-20T15:21:51;2.97;;;1.23;;
73938;SDS011;62291;47.554;8.504;2022-11-20T15:24:18;2.20;;;1.00;;
73938;SDS011;62291;47.554;8.504;2022-11-20T15:26:44;5.68;;;1.30;;
73938;SDS011;62291;47.554;8.504;2022-11-20T15:29:14;4.25;;;1.05;;
73938;SDS011;62291;47.554;8.504;2022-11-20T15:31:43;7.10;;;1.17;;
73938;SDS011;62291;47.554;8.504;2022-11-20T15:34:13;2.35;;;1.10;;
73938;SDS011;62291;47.554;8.504;2022-11-20T15:36:40;2.55;;;0.88;;
73938;SDS011;62291;47.554;8.504;2022-11-20T15:39:07;4.13;;;1.20;;
73938;SDS011;62291;47.554;8.504;2022-11-20T15:41:36;2.55;;;1.10;;
73938;SDS011;62291;47.554;8.504;2022-11-20T15:44:03;9.35;;;1.10;;
73938;SDS011;62291;47.554;8.504;2022-11-20T15:46:33;3.67;;;0.98;;
73938;SDS011;62291;47.554;8.504;2022-11-20T15:49:05;3.58;;;1.10;;
73938;SDS011;62291;47.554;8.504;2022-11-20T15:51:34;6.22;;;0.98;;
73938;SDS011;62291;47.554;8.504;2022-11-20T15:54:14;5.47;;;1.45;;
73938;SDS011;62291;47.554;8.504;2022-11-20T15:56:43;2.25;;;1.10;;
73938;SDS011;62291;47.554;8.504;2022-11-20T15:59:09;2.55;;;0.88;;
73938;SDS011;62291;47.554;8.504;2022-11-20T16:01:34;2.47;;;1.10;;
73938;SDS011;62291;47.554;8.504;2022-11-20T16:04:00;3.83;;;1.27;;
73938;SDS011;62291;47.554;8.504;2022-11-20T16:06:26;4.38;;;0.90;;
73938;SDS011;62291;47.554;8.504;2022-11-20T16:08:52;3.08;;;1.17;;
73938;SDS011;62291;47.554;8.504;2022-11-20T16:11:18;2.65;;;1.20;;
73938;SDS011;62291;47.554;8.504;2022-11-20T16:13:43;2.50;;;1.10;;
73938;SDS011;62291;47.554;8.504;2022-11-20T16:16:29;4.78;;;1.48;;
73938;SDS011;62291;47.554;8.504;2022-11-20T16:19:00;3.75;;;1.20;;
73938;SDS011;62291;47.554;8.504;2022-11-20T16:21:26;3.00;;;1.40;;
73938;SDS011;62291;47.554;8.504;2022-11-20T16:23:57;4.47;;;1.40;;
73938;SDS011;62291;47.554;8.504;2022-11-20T16:26:27;6.60;;;1.40;;
73938;SDS011;62291;47.554;8.504;2022-11-20T16:28:53;5.90;;;1.60;;
73938;SDS011;62291;47.554;8.504;2022-11-20T16:31:19;4.40;;;1.38;;
73938;SDS011;62291;47.554;8.504;2022-11-20T16:33:52;2.65;;;1.52;;
73938;SDS011;62291;47.554;8.504;2022-11-20T16:36:19;4.82;;;1.63;;
73938;SDS011;62291;47.554;8.504;2022-11-20T16:38:51;3.90;;;1.80;;
73938;SDS011;62291;47.554;8.504;2022-11-20T16:41:17;2.40;;;1.45;;
73938;SDS011;62291;47.554;8.504;2022-11-20T16:43:44;4.95;;;1.20;;